Time;durP1;ratioP1;P1;durP2;ratioP2;P2;SDS_P1;SDS_P2;PMS_P1;PMS_P2;Temp;Humidity;BMP_temperature;BMP_pressure;BME280_temperature;BME280_humidity;BME280_pressure;Samples;Min_cycle;Max_cycle;Signal;HPM_P1;HPM_P2
2023/02/04 00:00:47;;;;;;;8.95;1.83;;;5.50;99.90;;;;;;5001651;28;20023;-82
2023/02/04 00:03:15;;;;;;;12.48;2.47;;;5.40;99.90;;;;;;4996459;28;20034;-82
2023/02/04 00:05:41;;;;;;;13.38;1.88;;;5.40;99.90;;;;;;4993004;28;20050;-80
2023/02/04 00:08:07;;;;;;;14.45;2.05;;;5.40;99.90;;;;;;4996127;28;20062;-82
2023/02/04 00:10:33;;;;;;;18.33;2.10;;;5.30;99.90;;;;;;4997852;28;20022;-80
2023/02/04 00:12:59;;;;;;;15.75;2.15;;;5.30;99.90;;;;;;4993531;28;20018;-83
2023/02/04 00:15:24;;;;;;;8.07;1.85;;;5.30;99.90;;;;;;4992629;28;20046;-80
2023/02/04 00:17:50;;;;;;;14.73;1.50;;;5.20;99.90;;;;;;4991523;28;20037;-82
2023/02/04 00:20:17;;;;;;;6.40;1.45;;;5.10;99.90;;;;;;4995113;28;20023;-81
2023/02/04 00:22:43;;;;;;;8.93;1.70;;;5.10;99.90;;;;;;4992971;28;20026;-82
2023/02/04 00:25:08;;;;;;;11.60;1.73;;;5.10;99.90;;;;;;4998909;28;20035;-82
2023/02/04 00:27:34;;;;;;;10.98;1.73;;;5.10;99.90;;;;;;4992579;28;20035;-82
2023/02/04 00:29:59;;;;;;;14.93;2.13;;;5.00;99.90;;;;;;4995358;28;20037;-82
2023/02/04 00:32:25;;;;;;;8.00;1.67;;;5.00;99.90;;;;;;4990197;28;20026;-82
2023/02/04 00:34:52;;;;;;;8.05;1.35;;;5.10;99.90;;;;;;4996283;28;21316;-82
2023/02/04 00:37:18;;;;;;;7.28;1.60;;;4.90;99.90;;;;;;5002802;28;20030;-83
2023/02/04 00:39:43;;;;;;;8.30;1.58;;;4.90;99.90;;;;;;4995411;28;20019;-82
2023/02/04 00:42:09;;;;;;;7.88;1.55;;;4.90;99.90;;;;;;4998460;28;20066;-82
2023/02/04 00:44:35;;;;;;;8.00;1.67;;;5.00;99.90;;;;;;4991999;28;20031;-83
2023/02/04 00:47:01;;;;;;;7.00;1.55;;;4.80;99.90;;;;;;4993233;28;20073;-84
2023/02/04 00:49:26;;;;;;;15.48;1.98;;;4.90;99.90;;;;;;4992928;28;20090;-83
2023/02/04 00:51:52;;;;;;;14.38;2.17;;;4.80;99.90;;;;;;4994364;28;20058;-83
2023/02/04 00:54:18;;;;;;;9.48;1.35;;;4.80;99.90;;;;;;4992167;28;20022;-83
2023/02/04 00:56:44;;;;;;;7.57;1.83;;;4.70;99.90;;;;;;4992330;28;20065;-84
2023/02/04 00:59:10;;;;;;;8.18;1.58;;;4.70;99.90;;;;;;4998222;28;20041;-85
2023/02/04 01:01:35;;;;;;;10.45;1.92;;;4.70;99.90;;;;;;5000255;28;20018;-84
2023/02/04 01:04:01;;;;;;;12.35;1.40;;;4.60;99.90;;;;;;4994682;28;20074;-82
2023/02/04 01:06:27;;;;;;;17.88;2.17;;;4.60;99.90;;;;;;4991953;28;20093;-82
2023/02/04 01:08:52;;;;;;;5.50;1.25;;;4.50;99.90;;;;;;4993341;28;20039;-84
2023/02/04 01:11:19;;;;;;;8.02;1.40;;;4.50;99.90;;;;;;4997256;28;20038;-84
2023/02/04 01:13:44;;;;;;;6.85;1.40;;;4.50;99.90;;;;;;4997179;28;20022;-85
2023/02/04 01:16:11;;;;;;;13.13;1.73;;;4.40;99.90;;;;;;4990711;28;20056;-84
2023/02/04 01:18:38;;;;;;;8.25;2.03;;;4.40;99.90;;;;;;4993255;28;20366;-84
2023/02/04 01:21:03;;;;;;;9.57;1.80;;;4.40;99.90;;;;;;4989249;28;20026;-83
2023/02/04 01:23:29;;;;;;;13.38;1.58;;;4.40;99.90;;;;;;4995238;28;20019;-84
2023/02/04 01:25:55;;;;;;;7.22;1.42;;;4.40;99.90;;;;;;5000414;28;20030;-85
2023/02/04 01:28:21;;;;;;;18.48;1.95;;;4.30;99.90;;;;;;5000356;28;20571;-83
2023/02/04 01:30:46;;;;;;;11.00;1.55;;;4.30;99.90;;;;;;4991329;28;20050;-85
2023/02/04 01:33:12;;;;;;;12.00;1.45;;;4.30;99.90;;;;;;4994305;28;20046;-83
2023/02/04 01:35:38;;;;;;;13.82;2.25;;;4.30;99.90;;;;;;4993508;28;20035;-83
2023/02/04 01:38:03;;;;;;;12.85;1.55;;;4.30;99.90;;;;;;4992959;28;20042;-83
2023/02/04 01:40:29;;;;;;;6.72;1.10;;;4.30;99.90;;;;;;4993723;28;20293;-86
2023/02/04 01:42:55;;;;;;;4.13;0.93;;;4.20;99.90;;;;;;4991055;28;20031;-85
2023/02/04 01:45:21;;;;;;;8.23;1.30;;;4.30;99.90;;;;;;4992145;28;20049;-83
2023/02/04 01:47:47;;;;;;;8.50;1.25;;;4.20;99.90;;;;;;4998604;28;20038;-84
2023/02/04 01:50:14;;;;;;;5.90;1.42;;;4.20;99.90;;;;;;4998641;28;20042;-83
2023/02/04 01:52:41;;;;;;;4.60;1.40;;;4.20;99.90;;;;;;4989592;28;20027;-82
2023/02/04 01:55:13;;;;;;;9.60;1.52;;;4.10;99.90;;;;;;4993576;28;20110;-84
2023/02/04 01:57:40;;;;;;;10.13;1.55;;;4.10;99.90;;;;;;4994095;28;20050;-83
2023/02/04 02:00:13;;;;;;;10.52;1.33;;;4.20;99.90;;;;;;4988803;28;20034;-82
2023/02/04 02:02:52;;;;;;;3.47;1.10;;;4.10;99.90;;;;;;4993169;28;20033;-83
2023/02/04 02:05:22;;;;;;;5.80;1.48;;;4.10;99.90;;;;;;5017705;28;20099;-80
2023/02/04 02:07:48;;;;;;;7.80;1.70;;;4.10;99.90;;;;;;4996447;28;20043;-83
2023/02/04 02:10:15;;;;;;;11.00;1.73;;;4.10;99.90;;;;;;4995069;28;20027;-82
2023/02/04 02:12:41;;;;;;;14.60;1.23;;;4.10;99.90;;;;;;4994948;28;20030;-80
2023/02/04 02:15:08;;;;;;;7.00;1.35;;;4.00;99.90;;;;;;4993913;28;20042;-81
2023/02/04 02:17:34;;;;;;;9.90;1.40;;;4.00;99.90;;;;;;4990879;28;20027;-83
2023/02/04 02:20:00;;;;;;;10.98;1.55;;;4.00;99.90;;;;;;4989254;28;20130;-82
2023/02/04 02:22:38;;;;;;;3.72;1.00;;;3.90;99.90;;;;;;4990735;28;20034;-83
2023/02/04 02:25:11;;;;;;;5.20;0.90;;;3.90;99.90;;;;;;4994445;28;20034;-82
2023/02/04 02:27:37;;;;;;;4.22;1.33;;;3.90;99.90;;;;;;4992064;28;20034;-82
2023/02/04 02:30:05;;;;;;;3.45;1.30;;;3.90;99.90;;;;;;4993454;28;20061;-80
2023/02/04 02:32:30;;;;;;;6.25;1.33;;;3.90;99.90;;;;;;4991262;28;20066;-83
2023/02/04 02:34:56;;;;;;;6.53;1.50;;;3.80;99.90;;;;;;4994302;28;20026;-82
2023/02/04 02:37:21;;;;;;;5.60;1.20;;;3.80;99.90;;;;;;4994791;28;20042;-81
2023/02/04 02:39:47;;;;;;;6.65;1.38;;;3.80;99.90;;;;;;4997706;28;20035;-83
2023/02/04 02:42:18;;;;;;;7.18;1.48;;;3.80;99.90;;;;;;4999287;28;20053;-81
2023/02/04 02:44:45;;;;;;;6.40;1.58;;;3.70;99.90;;;;;;4995191;28;20027;-83
2023/02/04 02:47:14;;;;;;;9.65;1.80;;;3.70;99.90;;;;;;4997088;28;20048;-84
2023/02/04 02:49:40;;;;;;;6.68;1.02;;;3.70;99.90;;;;;;5006982;28;20023;-81
2023/02/04 02:52:12;;;;;;;4.03;1.40;;;3.60;99.90;;;;;;5006767;28;20042;-82
2023/02/04 02:54:39;;;;;;;9.38;1.40;;;3.60;99.90;;;;;;5006690;28;20121;-82
2023/02/04 02:57:25;;;;;;;8.82;1.27;;;3.50;99.90;;;;;;5006153;28;20068;-82
2023/02/04 02:59:50;;;;;;;10.85;1.23;;;3.50;99.90;;;;;;5007111;28;20038;-82
2023/02/04 03:02:21;;;;;;;3.15;1.25;;;3.50;99.90;;;;;;5006730;28;20027;-83
2023/02/04 03:04:52;;;;;;;5.07;1.33;;;3.50;99.90;;;;;;5006332;28;20037;-82
2023/02/04 03:07:20;;;;;;;6.93;1.30;;;3.40;99.90;;;;;;5006019;28;20042;-81
2023/02/04 03:09:45;;;;;;;4.18;1.35;;;3.40;99.90;;;;;;5006221;28;20106;-82
2023/02/04 03:12:11;;;;;;;5.65;1.42;;;3.40;99.90;;;;;;5007718;28;20037;-82
2023/02/04 03:14:37;;;;;;;10.77;1.60;;;3.30;99.90;;;;;;5006280;28;20037;-82
2023/02/04 03:17:05;;;;;;;6.90;1.50;;;3.30;99.90;;;;;;5005848;28;20026;-83
2023/02/04 03:19:32;;;;;;;7.70;1.55;;;3.20;99.90;;;;;;5006163;28;20037;-83
2023/02/04 03:21:58;;;;;;;6.85;1.50;;;3.20;99.90;;;;;;5005956;28;20041;-83
2023/02/04 03:24:24;;;;;;;9.35;1.48;;;3.10;99.90;;;;;;5004921;28;20034;-83
2023/02/04 03:26:50;;;;;;;6.35;1.40;;;3.10;99.90;;;;;;5005230;28;20038;-81
2023/02/04 03:29:15;;;;;;;5.32;1.08;;;3.10;99.90;;;;;;5007483;28;20038;-84
2023/02/04 03:31:41;;;;;;;12.07;2.00;;;3.00;99.90;;;;;;5007097;28;20027;-82
2023/02/04 03:34:07;;;;;;;8.95;1.70;;;3.00;99.90;;;;;;5006212;28;20030;-83
2023/02/04 03:36:32;;;;;;;9.57;1.67;;;3.00;99.90;;;;;;5006226;28;20637;-83
2023/02/04 03:38:58;;;;;;;7.13;1.40;;;2.90;99.90;;;;;;5005631;28;20842;-81
2023/02/04 03:41:23;;;;;;;6.22;1.92;;;3.00;99.90;;;;;;5007345;28;20046;-81
2023/02/04 03:43:49;;;;;;;5.28;1.98;;;2.90;99.90;;;;;;5005362;28;20119;-82
2023/02/04 03:46:14;;;;;;;11.77;1.52;;;2.90;99.90;;;;;;5005460;28;20035;-82
2023/02/04 03:48:40;;;;;;;4.43;1.63;;;2.90;99.90;;;;;;5005536;28;20472;-81
2023/02/04 03:51:06;;;;;;;6.53;1.60;;;2.90;99.90;;;;;;5006030;28;20034;-82
2023/02/04 03:53:31;;;;;;;6.07;1.70;;;2.90;99.90;;;;;;5006020;28;20030;-82
2023/02/04 03:55:57;;;;;;;7.25;2.05;;;2.90;99.90;;;;;;5006563;28;20038;-81
2023/02/04 03:58:23;;;;;;;6.90;1.63;;;2.80;99.90;;;;;;5005101;28;20040;-80
2023/02/04 04:00:48;;;;;;;5.32;1.80;;;2.80;99.90;;;;;;5006116;28;20037;-81
2023/02/04 04:03:14;;;;;;;8.32;1.70;;;2.80;99.90;;;;;;5005321;28;20034;-81
2023/02/04 04:05:40;;;;;;;4.13;1.80;;;2.80;99.90;;;;;;5005660;28;20030;-81
2023/02/04 04:08:06;;;;;;;9.85;1.60;;;2.80;99.90;;;;;;5004940;28;20081;-82
2023/02/04 04:10:32;;;;;;;6.60;1.83;;;2.70;99.90;;;;;;5005357;28;20037;-83
2023/02/04 04:12:58;;;;;;;3.10;1.50;;;2.70;99.90;;;;;;5005036;28;20048;-82
2023/02/04 04:15:23;;;;;;;7.00;1.95;;;2.70;99.90;;;;;;5005058;28;20074;-81
2023/02/04 04:17:49;;;;;;;6.72;2.10;;;2.70;99.90;;;;;;5005140;28;20033;-81
2023/02/04 04:20:15;;;;;;;5.30;1.92;;;2.70;99.90;;;;;;5005114;28;20041;-81
2023/02/04 04:22:41;;;;;;;10.32;2.42;;;2.60;99.90;;;;;;5005062;28;20049;-83
2023/02/04 04:25:07;;;;;;;4.85;2.35;;;2.60;99.90;;;;;;5004978;28;20084;-81
2023/02/04 04:27:33;;;;;;;5.00;1.90;;;2.60;99.90;;;;;;5004870;28;20062;-84
2023/02/04 04:29:58;;;;;;;5.65;1.98;;;2.60;99.90;;;;;;5004766;28;20049;-83
2023/02/04 04:32:24;;;;;;;6.13;2.20;;;2.60;99.90;;;;;;5004635;28;20443;-82
2023/02/04 04:34:49;;;;;;;4.28;2.33;;;2.50;99.90;;;;;;5004542;28;20031;-83
2023/02/04 04:37:15;;;;;;;7.72;1.95;;;2.50;99.90;;;;;;5004880;28;20129;-83
2023/02/04 04:39:41;;;;;;;4.13;1.95;;;2.50;99.90;;;;;;5004841;28;20022;-82
2023/02/04 04:42:06;;;;;;;8.70;2.38;;;2.40;99.90;;;;;;5004646;28;20023;-83
2023/02/04 04:44:32;;;;;;;7.82;2.10;;;2.30;99.90;;;;;;5004452;28;20038;-82
2023/02/04 04:46:57;;;;;;;10.48;2.40;;;2.30;99.90;;;;;;5005517;28;20275;-82
2023/02/04 04:49:23;;;;;;;7.07;2.30;;;2.30;99.90;;;;;;5004672;28;20026;-82
2023/02/04 04:51:49;;;;;;;7.22;2.13;;;2.30;99.90;;;;;;5004731;28;20031;-82
2023/02/04 04:54:14;;;;;;;8.02;2.30;;;2.20;99.90;;;;;;5005740;28;20030;-82
2023/02/04 04:56:40;;;;;;;8.25;2.33;;;2.20;99.90;;;;;;5003877;28;20058;-82
2023/02/04 04:59:06;;;;;;;7.32;2.38;;;2.20;99.90;;;;;;5004657;28;20053;-84
2023/02/04 05:01:32;;;;;;;10.52;2.75;;;2.20;99.90;;;;;;5004967;28;20045;-82
2023/02/04 05:03:57;;;;;;;5.10;2.25;;;2.10;99.90;;;;;;5004580;28;20041;-83
2023/02/04 05:06:24;;;;;;;7.60;2.47;;;2.10;99.90;;;;;;5005255;28;20033;-82
2023/02/04 05:08:53;;;;;;;5.03;2.42;;;2.10;99.90;;;;;;5004298;28;20114;-83
2023/02/04 05:11:19;;;;;;;7.50;2.47;;;2.10;99.90;;;;;;5005566;28;20557;-83
2023/02/04 05:13:45;;;;;;;7.90;2.85;;;2.10;99.90;;;;;;5004458;28;20044;-82
2023/02/04 05:16:11;;;;;;;6.90;2.88;;;2.10;99.90;;;;;;5004836;28;20026;-82
2023/02/04 05:18:37;;;;;;;6.60;2.65;;;2.10;99.90;;;;;;5004377;28;20038;-82
2023/02/04 05:21:03;;;;;;;5.38;2.30;;;2.10;99.90;;;;;;5003729;28;20031;-81
2023/02/04 05:23:29;;;;;;;9.20;2.60;;;2.10;99.90;;;;;;5003541;28;20054;-81
2023/02/04 05:25:55;;;;;;;6.40;2.67;;;2.10;99.90;;;;;;5006061;28;20031;-80
2023/02/04 05:28:21;;;;;;;6.43;3.20;;;2.10;99.90;;;;;;5005872;28;20069;-81
2023/02/04 05:30:47;;;;;;;5.70;2.80;;;2.20;99.90;;;;;;5005151;28;20030;-83
2023/02/04 05:33:12;;;;;;;5.38;2.85;;;2.20;99.90;;;;;;5003930;28;20073;-81
2023/02/04 05:35:39;;;;;;;7.55;2.97;;;2.20;99.90;;;;;;5005659;28;20058;-84
2023/02/04 05:38:04;;;;;;;6.10;2.90;;;2.20;99.90;;;;;;5004678;28;20399;-84
2023/02/04 05:40:30;;;;;;;6.95;3.08;;;2.20;99.90;;;;;;5004820;28;20029;-83
2023/02/04 05:42:55;;;;;;;8.10;3.10;;;2.20;99.90;;;;;;5004305;28;20392;-84
2023/02/04 05:45:21;;;;;;;6.55;2.97;;;2.20;99.90;;;;;;5004388;28;20022;-83
2023/02/04 05:47:47;;;;;;;5.18;2.65;;;2.20;99.90;;;;;;5004547;28;20045;-84
2023/02/04 05:50:13;;;;;;;10.05;3.15;;;2.20;99.90;;;;;;5004544;28;20122;-84
2023/02/04 05:52:39;;;;;;;10.05;3.40;;;2.30;99.90;;;;;;5004280;28;20035;-82
2023/02/04 05:55:06;;;;;;;9.05;3.25;;;2.20;99.90;;;;;;5002636;28;20127;-83
2023/02/04 05:57:31;;;;;;;9.50;3.33;;;2.20;99.90;;;;;;4999797;28;20077;-83
2023/02/04 05:59:57;;;;;;;14.10;3.28;;;2.30;99.90;;;;;;5003211;28;20033;-84
2023/02/04 06:02:22;;;;;;;5.78;2.95;;;2.30;99.90;;;;;;5003391;28;20046;-84
2023/02/04 06:04:48;;;;;;;6.22;3.13;;;2.30;99.90;;;;;;5004395;28;20029;-84
2023/02/04 06:07:14;;;;;;;7.05;3.22;;;2.40;99.90;;;;;;5004413;28;20523;-85
2023/02/04 06:09:39;;;;;;;8.27;3.58;;;2.50;99.90;;;;;;5004105;28;20030;-83
2023/02/04 06:12:05;;;;;;;6.97;3.50;;;2.50;99.90;;;;;;5006920;28;20098;-84
2023/02/04 06:14:30;;;;;;;6.65;3.65;;;2.50;99.90;;;;;;5001406;28;20142;-84
2023/02/04 06:16:56;;;;;;;10.15;4.10;;;2.50;99.90;;;;;;4989723;28;20039;-84
2023/02/04 06:19:22;;;;;;;8.30;3.53;;;2.60;99.90;;;;;;4987508;28;20026;-78
2023/02/04 06:21:47;;;;;;;8.00;3.95;;;2.50;99.90;;;;;;4998899;28;20451;-81
2023/02/04 06:24:13;;;;;;;8.80;4.20;;;2.50;99.90;;;;;;5008690;28;20041;-79
2023/02/04 06:26:39;;;;;;;7.70;4.13;;;2.50;99.90;;;;;;5006235;28;20042;-78
2023/02/04 06:29:04;;;;;;;7.93;3.90;;;2.60;99.90;;;;;;5004203;28;20058;-78
2023/02/04 06:31:30;;;;;;;9.13;4.05;;;2.50;99.90;;;;;;5007554;28;20086;-79
2023/02/04 06:33:56;;;;;;;10.80;4.20;;;2.50;99.90;;;;;;5005012;28;20031;-78
2023/02/04 06:36:22;;;;;;;8.60;4.57;;;2.40;99.90;;;;;;5009021;28;20053;-79
2023/02/04 06:38:47;;;;;;;9.60;4.63;;;2.40;99.90;;;;;;4999637;28;20038;-77
2023/02/04 06:41:13;;;;;;;8.93;4.32;;;2.30;99.90;;;;;;5003459;28;20054;-77
2023/02/04 06:43:38;;;;;;;12.50;5.03;;;2.30;99.90;;;;;;4998885;28;20041;-77
2023/02/04 06:46:04;;;;;;;11.77;4.60;;;2.20;99.90;;;;;;5000687;28;20041;-77
2023/02/04 06:48:30;;;;;;;8.95;4.05;;;2.20;99.90;;;;;;5003352;28;20069;-78
2023/02/04 06:50:55;;;;;;;12.10;4.68;;;2.10;99.90;;;;;;5003366;28;20030;-78
2023/02/04 06:53:21;;;;;;;11.48;4.85;;;2.10;99.90;;;;;;4998951;28;20042;-77
2023/02/04 06:55:46;;;;;;;9.25;4.88;;;2.10;99.90;;;;;;4995516;28;20363;-79
2023/02/04 06:58:12;;;;;;;13.02;4.90;;;2.10;99.90;;;;;;5005544;28;20082;-78
2023/02/04 07:00:38;;;;;;;10.27;4.97;;;2.00;99.90;;;;;;5006948;28;20033;-79
2023/02/04 07:03:03;;;;;;;12.90;5.75;;;2.00;99.90;;;;;;5007072;28;20042;-78
2023/02/04 07:05:30;;;;;;;12.30;5.43;;;2.00;99.90;;;;;;5005803;28;20022;-79
2023/02/04 07:07:55;;;;;;;9.25;4.88;;;1.90;99.90;;;;;;5005982;28;20034;-78
2023/02/04 07:10:21;;;;;;;10.73;5.25;;;1.90;99.90;;;;;;5006040;28;20022;-79
2023/02/04 07:12:46;;;;;;;14.00;5.50;;;1.90;99.90;;;;;;5005485;28;20113;-78
2023/02/04 07:15:12;;;;;;;11.73;5.25;;;1.90;99.90;;;;;;5003619;28;20100;-78
2023/02/04 07:17:38;;;;;;;15.65;6.25;;;1.90;99.90;;;;;;5006460;28;20035;-77
2023/02/04 07:20:03;;;;;;;10.77;5.10;;;1.90;99.90;;;;;;5005477;28;20030;-77
2023/02/04 07:22:29;;;;;;;10.23;5.43;;;1.90;99.90;;;;;;4998144;28;20113;-77
2023/02/04 07:24:55;;;;;;;14.82;6.63;;;2.00;99.90;;;;;;5005050;28;20049;-77
2023/02/04 07:27:20;;;;;;;14.48;6.28;;;2.00;99.90;;;;;;5006161;28;20156;-77
2023/02/04 07:29:46;;;;;;;14.70;6.20;;;2.00;99.90;;;;;;5004841;28;20030;-79
2023/02/04 07:32:11;;;;;;;13.65;5.80;;;2.00;99.90;;;;;;5005181;28;20022;-78
2023/02/04 07:34:37;;;;;;;12.38;6.05;;;2.00;99.90;;;;;;5005222;28;20081;-80
2023/02/04 07:37:03;;;;;;;14.15;5.65;;;2.10;99.90;;;;;;5004598;28;20041;-78
2023/02/04 07:39:28;;;;;;;11.55;5.40;;;2.10;99.90;;;;;;5004382;28;20062;-79
2023/02/04 07:41:54;;;;;;;13.55;5.60;;;2.10;99.90;;;;;;5006192;28;20054;-78
2023/02/04 07:44:19;;;;;;;15.93;6.47;;;2.10;99.90;;;;;;5004802;28;20030;-77
2023/02/04 07:46:45;;;;;;;14.45;5.53;;;2.10;99.90;;;;;;5004596;28;20042;-77
2023/02/04 07:49:10;;;;;;;13.90;6.35;;;2.10;99.90;;;;;;5004895;28;20031;-78
2023/02/04 07:51:36;;;;;;;12.60;6.03;;;2.10;99.90;;;;;;5005607;28;20503;-77
2023/02/04 07:54:02;;;;;;;17.48;6.05;;;2.10;99.90;;;;;;5002726;28;20049;-78
2023/02/04 07:56:27;;;;;;;14.65;6.45;;;2.10;99.90;;;;;;5003315;28;20042;-78
2023/02/04 07:58:53;;;;;;;15.05;6.20;;;2.20;99.90;;;;;;5004657;28;20022;-78
2023/02/04 08:01:18;;;;;;;13.20;6.25;;;2.40;99.90;;;;;;5006152;28;20050;-79
2023/02/04 08:03:44;;;;;;;15.00;5.93;;;2.60;99.90;;;;;;5004586;28;20094;-79
2023/02/04 08:06:10;;;;;;;12.38;5.85;;;2.90;99.90;;;;;;5004873;28;20022;-78
2023/02/04 08:08:35;;;;;;;12.60;5.45;;;3.10;99.90;;;;;;5004398;28;20050;-79
2023/02/04 08:11:01;;;;;;;16.38;5.80;;;3.30;99.90;;;;;;5005762;28;20034;-77
2023/02/04 08:13:27;;;;;;;12.10;5.55;;;3.60;99.90;;;;;;5003771;28;20037;-78
2023/02/04 08:15:52;;;;;;;13.52;5.65;;;3.90;99.90;;;;;;5003290;28;20056;-76
2023/02/04 08:18:18;;;;;;;9.43;4.88;;;4.30;99.90;;;;;;4999736;28;20026;-77
2023/02/04 08:20:43;;;;;;;8.55;5.10;;;4.60;99.90;;;;;;4983746;28;20023;-77
2023/02/04 08:23:09;;;;;;;9.15;4.88;;;4.90;99.90;;;;;;4989445;28;20026;-79
2023/02/04 08:25:34;;;;;;;10.30;5.00;;;5.10;99.90;;;;;;5003880;28;20041;-77
2023/02/04 08:28:00;;;;;;;9.98;5.15;;;4.90;99.90;;;;;;5002657;28;20104;-78
2023/02/04 08:30:25;;;;;;;11.05;4.88;;;4.80;99.90;;;;;;5004744;28;20522;-78
2023/02/04 08:32:51;;;;;;;10.10;5.00;;;4.70;99.90;;;;;;5003190;28;20463;-78
2023/02/04 08:35:17;;;;;;;14.75;5.32;;;4.80;99.90;;;;;;5003541;28;20050;-78
2023/02/04 08:37:43;;;;;;;9.68;4.97;;;4.80;99.90;;;;;;5004897;28;20030;-78
2023/02/04 08:40:09;;;;;;;10.20;5.50;;;4.80;99.90;;;;;;5003556;28;20057;-77
2023/02/04 08:42:35;;;;;;;10.88;5.50;;;4.80;99.90;;;;;;5004891;28;20110;-77
2023/02/04 08:45:00;;;;;;;14.45;5.45;;;4.80;99.90;;;;;;5002010;28;20130;-77
2023/02/04 08:47:26;;;;;;;11.20;5.22;;;5.00;99.90;;;;;;4995951;28;20060;-77
2023/02/04 08:49:51;;;;;;;7.93;5.07;;;5.30;99.90;;;;;;4998309;28;20034;-78
2023/02/04 08:52:18;;;;;;;7.55;4.68;;;5.70;99.90;;;;;;4998872;28;20030;-78
2023/02/04 08:54:43;;;;;;;9.93;4.95;;;6.00;99.90;;;;;;4993178;28;20030;-79
2023/02/04 08:57:09;;;;;;;8.90;4.63;;;6.00;99.90;;;;;;4999853;28;20058;-79
2023/02/04 08:59:35;;;;;;;7.47;4.50;;;6.00;99.90;;;;;;4997937;28;20041;-77
2023/02/04 09:02:01;;;;;;;8.48;4.63;;;6.00;99.90;;;;;;4991330;28;20026;-77
2023/02/04 09:04:28;;;;;;;8.18;4.55;;;5.80;99.90;;;;;;4995483;28;20514;-78
2023/02/04 09:06:54;;;;;;;8.65;4.70;;;5.90;99.90;;;;;;5011178;28;20708;-78
2023/02/04 09:09:20;;;;;;;10.43;5.40;;;5.60;99.90;;;;;;4997214;28;20029;-77
2023/02/04 09:11:46;;;;;;;9.98;4.75;;;5.50;99.90;;;;;;4997186;28;20059;-79
2023/02/04 09:14:12;;;;;;;9.05;4.82;;;5.40;99.90;;;;;;4996372;28;20539;-78
2023/02/04 09:16:38;;;;;;;11.80;5.32;;;5.20;99.90;;;;;;4997271;28;20054;-77
2023/02/04 09:19:04;;;;;;;8.60;4.85;;;5.20;99.90;;;;;;4996794;28;20033;-78
2023/02/04 09:21:30;;;;;;;10.70;4.97;;;5.10;99.90;;;;;;4999660;28;20030;-79
2023/02/04 09:23:56;;;;;;;8.30;4.95;;;5.10;99.90;;;;;;5001717;28;20037;-79
2023/02/04 09:26:22;;;;;;;11.75;5.05;;;5.00;99.90;;;;;;4998814;28;20113;-79
2023/02/04 09:28:48;;;;;;;10.75;5.30;;;4.90;99.90;;;;;;5003050;28;20027;-79
2023/02/04 09:31:14;;;;;;;9.55;5.20;;;4.90;99.90;;;;;;5003556;28;20018;-78
2023/02/04 09:33:40;;;;;;;11.30;5.45;;;4.90;99.90;;;;;;5003817;28;20050;-79
2023/02/04 09:36:06;;;;;;;11.48;5.25;;;4.70;99.90;;;;;;5001766;28;20031;-79
2023/02/04 09:38:32;;;;;;;12.27;5.30;;;4.70;99.90;;;;;;5003842;28;20058;-78
2023/02/04 09:41:01;;;;;;;12.13;6.15;;;4.60;99.90;;;;;;5001506;28;20030;-79
2023/02/04 09:43:29;;;;;;;11.18;6.00;;;4.70;99.90;;;;;;5004246;28;20023;-79
2023/02/04 09:45:56;;;;;;;12.07;5.63;;;4.60;99.90;;;;;;5004257;28;20023;-80
2023/02/04 09:48:23;;;;;;;10.23;5.50;;;4.60;99.90;;;;;;5000300;28;20034;-79
2023/02/04 09:50:49;;;;;;;10.68;6.05;;;4.60;99.90;;;;;;5010514;28;20022;-79
2023/02/04 09:53:21;;;;;;;10.93;5.72;;;4.60;99.90;;;;;;5009181;28;20045;-81
2023/02/04 09:55:49;;;;;;;11.60;6.05;;;4.60;99.90;;;;;;5007964;28;20053;-80
2023/02/04 09:58:20;;;;;;;10.38;5.57;;;4.60;99.90;;;;;;5005517;28;20034;-80
2023/02/04 10:00:55;;;;;;;9.35;5.45;;;4.90;99.90;;;;;;5005543;28;20039;-79
2023/02/04 10:03:22;;;;;;;9.38;4.93;;;5.10;99.90;;;;;;5004622;28;20109;-79
2023/02/04 10:05:49;;;;;;;9.68;4.60;;;5.70;99.90;;;;;;5019622;28;20027;-78
2023/02/04 10:08:20;;;;;;;6.90;4.47;;;6.30;99.90;;;;;;5005272;28;20038;-78
2023/02/04 10:10:47;;;;;;;5.68;4.00;;;6.60;99.90;;;;;;5012348;28;20040;-77
2023/02/04 10:13:20;;;;;;;9.30;4.40;;;7.10;99.90;;;;;;5008543;28;20328;-77
2023/02/04 10:15:47;;;;;;;6.10;3.70;;;7.60;99.90;;;;;;5008641;28;20495;-78
2023/02/04 10:18:26;;;;;;;6.45;4.25;;;8.10;99.90;;;;;;5008345;28;20015;-77
2023/02/04 10:21:15;;;;;;;8.15;4.95;;;8.60;99.90;;;;;;5004778;28;20057;-80
2023/02/04 10:23:42;;;;;;;6.80;4.22;;;8.90;99.90;;;;;;5009286;28;20024;-79
2023/02/04 10:26:10;;;;;;;7.03;4.32;;;9.10;99.90;;;;;;5009822;28;20039;-80
2023/02/04 10:28:36;;;;;;;9.20;4.00;;;9.30;99.90;;;;;;5007748;28;20034;-78
2023/02/04 10:31:02;;;;;;;9.07;4.93;;;9.50;99.90;;;;;;4999490;28;20046;-78
2023/02/04 10:33:28;;;;;;;8.13;4.32;;;9.60;99.90;;;;;;5008543;28;20030;-79
2023/02/04 10:35:57;;;;;;;10.05;5.43;;;9.70;99.90;;;;;;5009035;28;20041;-76
2023/02/04 10:38:23;;;;;;;7.22;4.57;;;9.70;99.90;;;;;;5009960;28;20042;-78
2023/02/04 10:41:01;;;;;;;5.97;4.25;;;9.70;99.90;;;;;;5010055;28;20101;-79
2023/02/04 10:43:26;;;;;;;7.35;4.15;;;9.70;99.90;;;;;;5009081;28;20034;-78
2023/02/04 10:45:58;;;;;;;9.93;4.45;;;9.60;99.90;;;;;;5008414;28;20038;-78
2023/02/04 10:48:24;;;;;;;7.30;4.07;;;9.70;99.90;;;;;;5010016;28;20040;-78
2023/02/04 10:50:49;;;;;;;5.85;3.70;;;9.80;99.90;;;;;;5020622;28;20117;-77
2023/02/04 10:56:04;;;;;;;5.50;3.70;;;10.10;99.90;;;;;;5004674;28;20057;-79
2023/02/04 10:58:31;;;;;;;6.60;4.03;;;10.20;99.90;;;;;;5005466;28;20133;-78
2023/02/04 11:00:57;;;;;;;6.32;3.97;;;10.20;99.90;;;;;;5004474;28;20036;-78
2023/02/04 11:03:29;;;;;;;8.30;3.90;;;9.90;99.90;;;;;;5004188;28;20046;-78
2023/02/04 11:05:57;;;;;;;5.25;3.50;;;9.80;99.90;;;;;;5006353;28;20033;-78
2023/02/04 11:08:25;;;;;;;9.30;4.10;;;9.80;99.90;;;;;;4996177;28;20110;-79
2023/02/04 11:10:59;;;;;;;6.32;3.85;;;9.90;99.90;;;;;;4998347;28;20041;-78
2023/02/04 11:13:38;;;;;;;5.68;3.20;;;10.10;99.90;;;;;;4998212;28;20039;-77
2023/02/04 11:16:16;;;;;;;5.82;3.50;;;10.30;99.90;;;;;;4993313;28;20066;-76
2023/02/04 11:18:46;;;;;;;6.45;3.78;;;10.60;99.90;;;;;;5006988;28;20407;-80
2023/02/04 11:21:27;;;;;;;8.18;3.65;;;10.80;99.90;;;;;;4996863;28;20034;-79
2023/02/04 11:24:11;;;;;;;7.03;3.60;;;11.00;99.90;;;;;;5002491;28;20098;-78
2023/02/04 11:26:47;;;;;;;7.70;3.42;;;11.10;99.90;;;;;;5004620;28;20172;-74
2023/02/04 11:29:24;;;;;;;5.18;3.60;;;11.30;99.90;;;;;;5005781;28;20038;-77
2023/02/04 11:31:50;;;;;;;5.38;3.15;;;11.80;99.90;;;;;;4999116;28;20031;-75
2023/02/04 11:34:15;;;;;;;4.82;2.58;;;12.20;99.90;;;;;;5000517;28;20034;-77
2023/02/04 11:36:58;;;;;;;4.22;2.30;;;12.60;99.90;;;;;;4994808;28;20039;-76
2023/02/04 11:39:30;;;;;;;6.60;3.10;;;12.70;99.90;;;;;;5004661;28;20415;-75
2023/02/04 11:41:58;;;;;;;5.50;2.47;;;12.70;99.90;;;;;;4998503;28;20022;-75
2023/02/04 11:44:24;;;;;;;6.03;2.72;;;12.80;99.90;;;;;;4993606;28;20031;-75
2023/02/04 11:46:54;;;;;;;4.57;2.80;;;12.80;99.90;;;;;;4984789;28;20070;-76
2023/02/04 11:49:22;;;;;;;7.03;3.90;;;12.50;99.90;;;;;;4985608;28;20027;-78
2023/02/04 11:51:51;;;;;;;5.97;3.47;;;11.90;99.90;;;;;;4996462;28;20102;-77
2023/02/04 11:54:18;;;;;;;4.53;2.90;;;11.50;99.90;;;;;;4993176;28;20039;-79
2023/02/04 11:56:45;;;;;;;4.60;2.60;;;11.40;99.90;;;;;;4990656;28;20512;-75
2023/02/04 11:59:13;;;;;;;5.32;2.25;;;11.70;99.90;;;;;;4996338;28;20455;-76
2023/02/04 12:01:39;;;;;;;3.67;2.10;;;12.30;99.90;;;;;;4989359;28;20031;-76
2023/02/04 12:04:19;;;;;;;4.53;2.20;;;12.50;99.90;;;;;;5006261;28;20030;-79
2023/02/04 12:07:00;;;;;;;3.88;2.15;;;12.60;99.90;;;;;;5005762;28;20042;-77
2023/02/04 12:09:28;;;;;;;3.83;2.10;;;12.50;99.90;;;;;;5004498;28;20403;-79
2023/02/04 12:11:59;;;;;;;3.53;2.20;;;12.30;99.90;;;;;;5005412;28;20040;-79
2023/02/04 12:14:35;;;;;;;5.22;1.90;;;11.90;99.90;;;;;;5004048;28;20030;-80
2023/02/04 12:17:11;;;;;;;4.68;2.33;;;11.60;99.90;;;;;;5001660;28;20119;-80
2023/02/04 12:19:37;;;;;;;3.17;2.10;;;11.70;99.90;;;;;;4993759;28;20058;-79
2023/02/04 12:22:02;;;;;;;3.95;2.00;;;11.80;99.90;;;;;;4995221;28;20074;-77
2023/02/04 12:24:28;;;;;;;4.53;2.30;;;11.70;99.90;;;;;;4989706;28;20026;-77
2023/02/04 12:26:54;;;;;;;4.50;1.90;;;11.60;99.90;;;;;;4997426;28;20066;-77
2023/02/04 12:29:19;;;;;;;3.95;2.13;;;11.30;99.90;;;;;;5004279;28;20030;-80
2023/02/04 12:31:45;;;;;;;3.65;1.90;;;10.90;99.90;;;;;;5005248;28;20019;-78
2023/02/04 12:34:10;;;;;;;4.25;2.17;;;10.60;99.90;;;;;;5004356;28;20033;-79
2023/02/04 12:36:36;;;;;;;6.43;2.60;;;10.50;99.90;;;;;;4995683;28;20030;-76
2023/02/04 12:39:02;;;;;;;5.40;2.50;;;10.40;99.90;;;;;;4988529;28;20035;-79
2023/02/04 12:41:28;;;;;;;4.68;2.47;;;10.40;99.90;;;;;;4985247;28;20033;-75
2023/02/04 12:43:54;;;;;;;5.63;2.45;;;10.30;99.90;;;;;;4998289;28;20134;-77
2023/02/04 12:46:20;;;;;;;3.40;2.20;;;10.10;99.90;;;;;;4985064;28;20042;-78
2023/02/04 12:48:46;;;;;;;3.45;2.17;;;9.90;99.90;;;;;;4998058;28;20043;-77
2023/02/04 12:51:11;;;;;;;5.00;2.30;;;9.70;99.90;;;;;;5005804;28;20022;-80
2023/02/04 12:53:37;;;;;;;2.90;2.25;;;9.50;99.90;;;;;;5007761;28;20049;-80